Time;durP1;ratioP1;P1;durP2;ratioP2;P2;SDS_P1;SDS_P2;PMS_P1;PMS_P2;Temp;Humidity;BMP_temperature;BMP_pressure;BME280_temperature;BME280_humidity;BME280_pressure;Samples;Min_cycle;Max_cycle;Signal;HPM_P1;HPM_P2
2023/05/28 00:01:32;;;;;;;17.17;7.32;;;12.30;99.90;;;;;;5109188;28;20527;-59
2023/05/28 00:03:58;;;;;;;14.55;7.10;;;12.20;99.90;;;;;;5110487;28;20042;-59
2023/05/28 00:06:23;;;;;;;24.10;7.80;;;12.20;99.90;;;;;;5106189;28;20035;-57
2023/05/28 00:08:49;;;;;;;16.50;7.50;;;12.30;99.90;;;;;;5104710;28;20093;-58
2023/05/28 00:11:15;;;;;;;11.95;6.28;;;12.30;99.90;;;;;;5112298;28;20463;-52
2023/05/28 00:13:40;;;;;;;20.63;7.63;;;12.30;99.90;;;;;;5109829;28;20486;-59
2023/05/28 00:16:06;;;;;;;19.30;7.28;;;12.30;99.90;;;;;;5112192;28;20047;-59
2023/05/28 00:18:32;;;;;;;16.50;7.10;;;12.10;99.90;;;;;;5102859;28;20027;-59
2023/05/28 00:20:58;;;;;;;20.17;7.63;;;12.00;99.90;;;;;;5109903;28;20023;-58
2023/05/28 00:23:24;;;;;;;18.55;7.20;;;11.90;99.90;;;;;;5105917;27;20076;-56
2023/05/28 00:25:51;;;;;;;19.60;7.18;;;11.80;99.90;;;;;;5113512;27;20027;-57
2023/05/28 00:28:16;;;;;;;15.95;7.88;;;11.70;99.90;;;;;;5109500;28;20015;-59
2023/05/28 00:30:42;;;;;;;21.50;8.75;;;11.60;99.90;;;;;;5106365;27;20068;-58
2023/05/28 00:33:08;;;;;;;24.75;9.73;;;11.60;99.90;;;;;;5109437;28;20031;-57
2023/05/28 00:35:33;;;;;;;33.25;13.00;;;11.60;99.90;;;;;;5109614;28;20080;-58
2023/05/28 00:37:59;;;;;;;31.83;13.45;;;11.60;99.90;;;;;;5106787;28;20057;-60
2023/05/28 00:40:24;;;;;;;27.65;12.20;;;11.50;99.90;;;;;;5110948;28;20100;-58
2023/05/28 00:42:51;;;;;;;28.42;12.93;;;11.50;99.90;;;;;;5109578;28;20023;-58
2023/05/28 00:45:17;;;;;;;26.85;11.60;;;11.50;99.90;;;;;;5105735;28;20034;-60
2023/05/28 00:47:43;;;;;;;30.33;11.95;;;11.50;99.90;;;;;;5106239;28;20047;-60
2023/05/28 00:50:10;;;;;;;27.73;12.10;;;11.40;99.90;;;;;;5109461;28;20489;-54
2023/05/28 00:52:36;;;;;;;27.38;12.05;;;11.40;99.90;;;;;;5110931;28;20529;-56
2023/05/28 00:55:05;;;;;;;27.75;12.15;;;11.40;99.90;;;;;;5109336;28;20030;-59
2023/05/28 00:57:31;;;;;;;23.95;11.32;;;11.40;99.90;;;;;;5108462;28;20088;-59
2023/05/28 01:00:04;;;;;;;29.73;11.77;;;11.30;99.90;;;;;;5109585;28;20039;-56
2023/05/28 01:02:29;;;;;;;23.73;11.48;;;11.30;99.90;;;;;;5107551;28;20028;-58
2023/05/28 01:04:55;;;;;;;24.85;10.90;;;11.20;99.90;;;;;;5112264;27;20081;-57
2023/05/28 01:07:21;;;;;;;31.65;10.63;;;11.10;99.90;;;;;;5109476;28;20031;-58
2023/05/28 01:09:47;;;;;;;22.02;10.85;;;11.10;99.90;;;;;;5105438;28;20023;-57
2023/05/28 01:12:13;;;;;;;21.15;9.15;;;11.10;99.90;;;;;;5109893;28;20028;-58
2023/05/28 01:14:39;;;;;;;21.10;9.93;;;11.10;99.90;;;;;;5108479;28;20431;-57
2023/05/28 01:17:06;;;;;;;20.02;10.65;;;11.00;99.90;;;;;;5107625;28;20016;-56
2023/05/28 01:19:31;;;;;;;21.33;10.10;;;11.00;99.90;;;;;;5110682;28;20022;-56
2023/05/28 01:22:04;;;;;;;21.63;10.73;;;10.90;99.90;;;;;;5110659;28;20024;-59
2023/05/28 01:24:32;;;;;;;18.65;10.00;;;10.90;99.90;;;;;;5110008;28;20108;-57
2023/05/28 01:27:00;;;;;;;20.77;9.55;;;10.90;99.90;;;;;;5111018;28;20024;-57
2023/05/28 01:29:25;;;;;;;19.92;8.98;;;10.80;99.90;;;;;;5109369;28;20031;-60
2023/05/28 01:31:51;;;;;;;20.20;9.23;;;10.80;99.90;;;;;;5110527;28;20016;-59
2023/05/28 01:34:16;;;;;;;23.10;9.57;;;10.80;99.90;;;;;;5104965;28;20026;-55
2023/05/28 01:36:46;;;;;;;17.58;8.50;;;10.90;99.90;;;;;;5108116;28;20035;-55
2023/05/28 01:39:16;;;;;;;22.30;8.35;;;10.80;99.90;;;;;;5109069;28;20054;-55
2023/05/28 01:41:45;;;;;;;18.60;9.32;;;10.70;99.90;;;;;;5107814;28;20054;-53
2023/05/28 01:44:12;;;;;;;17.58;8.40;;;10.70;99.90;;;;;;5106600;28;20028;-54
2023/05/28 01:46:39;;;;;;;23.13;9.30;;;10.70;99.90;;;;;;5111140;28;20074;-60
2023/05/28 01:49:05;;;;;;;17.65;8.07;;;10.60;99.90;;;;;;5104295;28;20035;-57
2023/05/28 01:51:32;;;;;;;24.00;8.43;;;10.50;99.90;;;;;;5109829;28;20031;-59
2023/05/28 01:53:58;;;;;;;18.23;7.93;;;10.50;99.90;;;;;;5107238;28;20477;-58
2023/05/28 01:56:23;;;;;;;18.38;8.15;;;10.50;99.90;;;;;;5110969;28;20068;-57
2023/05/28 01:58:49;;;;;;;24.08;8.40;;;10.50;99.90;;;;;;5109558;28;20028;-59
2023/05/28 02:01:43;;;;;;;26.65;9.57;;;10.40;99.90;;;;;;5110407;28;20448;-58
2023/05/28 02:04:09;;;;;;;21.20;9.80;;;10.30;99.90;;;;;;5094623;27;20028;-58
2023/05/28 02:06:35;;;;;;;25.08;10.75;;;10.30;99.90;;;;;;5106295;28;20096;-57
2023/05/28 02:09:00;;;;;;;25.30;12.48;;;10.20;99.90;;;;;;5108627;28;20019;-58
2023/05/28 02:11:26;;;;;;;29.27;13.88;;;10.20;99.90;;;;;;5110531;28;20431;-57
2023/05/28 02:13:52;;;;;;;31.67;15.07;;;10.10;99.90;;;;;;5110205;27;20485;-58
2023/05/28 02:16:17;;;;;;;28.00;13.98;;;10.10;99.90;;;;;;5111115;27;20050;-58
2023/05/28 02:18:44;;;;;;;31.80;14.38;;;10.10;99.90;;;;;;5108727;28;20517;-57
2023/05/28 02:21:10;;;;;;;34.38;13.60;;;10.10;99.90;;;;;;5106795;28;20027;-60
2023/05/28 02:23:40;;;;;;;31.42;14.63;;;10.10;99.90;;;;;;5106583;28;20020;-59
2023/05/28 02:26:06;;;;;;;26.45;12.90;;;10.00;99.90;;;;;;5110012;28;20031;-58
2023/05/28 02:28:32;;;;;;;24.02;11.73;;;10.00;99.90;;;;;;5108391;28;20027;-57
2023/05/28 02:30:57;;;;;;;20.95;11.27;;;10.00;99.90;;;;;;5110117;28;20023;-54
2023/05/28 02:33:23;;;;;;;25.38;11.07;;;9.90;99.90;;;;;;5107585;28;20031;-58
2023/05/28 02:35:48;;;;;;;27.88;10.18;;;9.90;99.90;;;;;;5106339;28;20449;-58
2023/05/28 02:38:14;;;;;;;19.13;9.43;;;9.90;99.90;;;;;;5108984;28;20031;-55
2023/05/28 02:40:40;;;;;;;25.00;8.90;;;9.90;99.90;;;;;;5103257;28;20027;-59
2023/05/28 02:43:05;;;;;;;21.77;10.07;;;9.80;99.90;;;;;;5109369;28;20008;-55
2023/05/28 02:45:31;;;;;;;23.75;9.07;;;9.80;99.90;;;;;;5105613;28;20059;-58
2023/05/28 02:47:56;;;;;;;25.83;10.23;;;9.80;99.90;;;;;;5107963;28;20042;-58
2023/05/28 02:50:22;;;;;;;24.10;9.60;;;9.80;99.90;;;;;;5108053;28;20031;-57
2023/05/28 02:52:47;;;;;;;18.90;8.80;;;9.80;99.90;;;;;;5108233;28;20087;-59
2023/05/28 02:55:13;;;;;;;20.75;8.70;;;9.80;99.90;;;;;;5109642;28;20024;-57
2023/05/28 02:57:39;;;;;;;23.20;10.07;;;9.80;99.90;;;;;;5106455;28;20532;-60
2023/05/28 03:00:09;;;;;;;24.42;9.30;;;9.80;99.90;;;;;;5106398;28;20160;-60
2023/05/28 03:02:34;;;;;;;20.17;10.63;;;9.80;99.90;;;;;;5106298;28;20443;-60
2023/05/28 03:05:02;;;;;;;21.13;8.73;;;9.80;99.90;;;;;;5109573;28;20039;-58
2023/05/28 03:07:30;;;;;;;25.38;10.48;;;9.70;99.90;;;;;;5108824;28;20031;-56
2023/05/28 03:09:59;;;;;;;29.75;10.40;;;9.70;99.90;;;;;;5111708;28;20028;-57
2023/05/28 03:12:25;;;;;;;18.58;9.38;;;9.60;99.90;;;;;;5108502;28;20035;-57
2023/05/28 03:14:50;;;;;;;25.77;10.48;;;9.60;99.90;;;;;;5109001;28;20028;-52
2023/05/28 03:17:16;;;;;;;23.55;10.23;;;9.60;99.90;;;;;;5108572;28;20473;-54
2023/05/28 03:19:42;;;;;;;23.27;9.85;;;9.60;99.90;;;;;;5111933;28;20054;-58
2023/05/28 03:22:07;;;;;;;21.65;9.30;;;9.50;99.90;;;;;;5113225;28;20018;-56
2023/05/28 03:24:34;;;;;;;16.80;9.48;;;9.60;99.90;;;;;;5113126;28;20035;-56
2023/05/28 03:27:01;;;;;;;23.83;10.00;;;9.60;99.90;;;;;;5114586;28;20027;-55
2023/05/28 03:29:27;;;;;;;22.63;9.32;;;9.60;99.90;;;;;;5107259;28;20031;-55
2023/05/28 03:31:52;;;;;;;21.90;9.43;;;9.50;99.90;;;;;;5112592;28;20033;-59
2023/05/28 03:34:18;;;;;;;23.60;9.32;;;9.50;99.90;;;;;;5111536;28;20023;-58
2023/05/28 03:36:44;;;;;;;28.00;10.43;;;9.50;99.90;;;;;;5114013;28;20059;-58
2023/05/28 03:39:10;;;;;;;23.23;9.60;;;9.60;99.90;;;;;;5113927;28;20034;-59
2023/05/28 03:41:36;;;;;;;20.17;9.32;;;9.60;99.90;;;;;;5113539;28;20499;-58
2023/05/28 03:44:07;;;;;;;22.35;9.88;;;9.60;99.90;;;;;;5111029;28;20044;-57
2023/05/28 03:46:32;;;;;;;26.67;9.15;;;9.60;99.90;;;;;;5114055;28;20092;-54
2023/05/28 03:48:58;;;;;;;19.85;9.45;;;9.50;99.90;;;;;;5113680;28;20020;-55
2023/05/28 03:51:24;;;;;;;20.77;9.73;;;9.50;99.90;;;;;;5110365;28;20077;-55
2023/05/28 03:53:50;;;;;;;23.95;10.07;;;9.50;99.90;;;;;;5108552;28;20412;-59
2023/05/28 03:56:16;;;;;;;22.00;11.18;;;9.60;99.90;;;;;;5114258;28;20023;-54
2023/05/28 03:58:42;;;;;;;21.50;9.65;;;9.60;99.90;;;;;;5111248;28;20028;-52
2023/05/28 04:01:07;;;;;;;26.83;9.05;;;9.60;99.90;;;;;;5113509;28;20039;-54
2023/05/28 04:03:33;;;;;;;26.55;11.05;;;9.50;99.90;;;;;;5110705;27;20035;-56
2023/05/28 04:05:59;;;;;;;30.15;11.65;;;9.60;99.90;;;;;;5109331;28;20091;-55
2023/05/28 04:08:25;;;;;;;26.10;10.73;;;9.60;99.90;;;;;;5113235;28;20059;-55
2023/05/28 04:10:50;;;;;;;22.83;11.48;;;9.50;99.90;;;;;;5112891;28;20055;-57
2023/05/28 04:13:16;;;;;;;25.55;10.60;;;9.60;99.90;;;;;;5111981;28;20614;-55
2023/05/28 04:15:42;;;;;;;19.88;9.98;;;9.60;99.90;;;;;;5110890;28;20386;-53
2023/05/28 04:18:08;;;;;;;24.20;10.30;;;9.60;99.90;;;;;;5112501;28;20023;-54
2023/05/28 04:20:35;;;;;;;28.52;10.63;;;9.60;99.90;;;;;;5113187;28;20041;-56
2023/05/28 04:23:01;;;;;;;27.05;9.60;;;9.60;99.90;;;;;;5112591;28;20024;-60
2023/05/28 04:25:28;;;;;;;23.90;9.90;;;9.60;99.90;;;;;;5112921;28;20072;-53
2023/05/28 04:27:54;;;;;;;21.95;9.15;;;9.70;99.90;;;;;;5110183;28;20077;-55
2023/05/28 04:30:22;;;;;;;31.55;10.98;;;9.70;99.90;;;;;;5110154;28;20453;-58
2023/05/28 04:32:51;;;;;;;27.02;9.88;;;9.80;99.90;;;;;;5112289;28;20026;-59
2023/05/28 04:35:17;;;;;;;25.40;9.32;;;9.80;99.90;;;;;;5110537;28;20358;-59
2023/05/28 04:37:42;;;;;;;22.52;9.75;;;9.80;99.90;;;;;;5110023;28;20444;-57
2023/05/28 04:40:11;;;;;;;23.17;8.85;;;9.80;99.90;;;;;;5108473;28;20020;-60
2023/05/28 04:42:37;;;;;;;25.35;10.20;;;9.90;99.90;;;;;;5111437;28;20485;-57
2023/05/28 04:45:04;;;;;;;22.45;10.02;;;9.90;99.90;;;;;;5109159;28;20034;-51
2023/05/28 04:47:30;;;;;;;18.05;10.05;;;10.00;99.90;;;;;;5111586;28;20038;-56
2023/05/28 04:49:57;;;;;;;22.73;9.55;;;10.00;99.90;;;;;;5112061;28;20028;-58
2023/05/28 04:52:23;;;;;;;21.80;9.60;;;10.10;99.90;;;;;;5109976;28;20047;-58
2023/05/28 04:54:49;;;;;;;24.77;9.63;;;10.10;99.90;;;;;;5110373;28;20102;-57
2023/05/28 04:57:15;;;;;;;20.20;9.50;;;10.20;99.90;;;;;;5106404;28;20137;-59
2023/05/28 04:59:41;;;;;;;21.55;9.68;;;10.30;99.90;;;;;;5107036;28;20027;-59
2023/05/28 05:02:07;;;;;;;18.23;9.13;;;10.40;99.90;;;;;;5106208;28;20381;-58
2023/05/28 05:04:32;;;;;;;18.58;8.18;;;10.40;99.90;;;;;;5111392;28;20027;-59
2023/05/28 05:06:58;;;;;;;14.98;7.97;;;10.60;99.90;;;;;;5110550;28;20023;-57
2023/05/28 05:09:24;;;;;;;20.73;9.05;;;10.60;99.90;;;;;;5111683;28;20462;-60
2023/05/28 05:11:50;;;;;;;20.60;8.48;;;10.70;99.90;;;;;;5105986;28;20077;-56
2023/05/28 05:14:15;;;;;;;24.65;9.10;;;10.80;99.90;;;;;;5108282;28;20463;-58
2023/05/28 05:16:41;;;;;;;22.50;9.13;;;10.90;99.90;;;;;;5108277;28;20016;-56
2023/05/28 05:19:07;;;;;;;20.80;7.43;;;11.00;99.90;;;;;;5111039;28;20028;-58
2023/05/28 05:21:32;;;;;;;19.52;8.45;;;11.10;99.90;;;;;;5110654;28;20043;-59
2023/05/28 05:23:58;;;;;;;20.02;8.02;;;11.20;99.90;;;;;;5111945;28;20077;-59
2023/05/28 05:26:23;;;;;;;17.42;8.10;;;11.20;99.90;;;;;;5109253;28;20393;-54
2023/05/28 05:28:49;;;;;;;19.45;7.60;;;11.30;99.90;;;;;;5107670;28;20031;-59
2023/05/28 05:31:15;;;;;;;14.73;7.05;;;11.30;99.90;;;;;;5110224;28;20024;-60
2023/05/28 05:33:41;;;;;;;16.33;7.28;;;11.40;99.90;;;;;;5109818;28;20059;-57
2023/05/28 05:36:08;;;;;;;25.83;7.20;;;11.50;99.90;;;;;;5105110;28;20023;-57
2023/05/28 05:38:34;;;;;;;15.05;6.00;;;11.50;99.90;;;;;;5104648;27;20152;-58
2023/05/28 05:41:00;;;;;;;16.17;6.60;;;11.60;99.90;;;;;;5102759;28;20470;-57
2023/05/28 05:43:26;;;;;;;14.63;6.57;;;11.70;99.90;;;;;;5104398;28;20036;-59
2023/05/28 05:45:51;;;;;;;19.40;6.25;;;11.80;99.90;;;;;;5106229;27;20500;-56
2023/05/28 05:48:17;;;;;;;16.75;6.25;;;11.90;99.90;;;;;;5112263;27;20019;-57
2023/05/28 05:50:54;;;;;;;15.35;5.82;;;12.00;99.90;;;;;;5111289;28;20034;-57
2023/05/28 05:53:21;;;;;;;15.68;6.47;;;12.10;99.90;;;;;;5110815;28;20106;-57
2023/05/28 05:55:46;;;;;;;17.08;5.80;;;12.20;99.90;;;;;;5111046;28;20024;-58
2023/05/28 05:58:12;;;;;;;13.63;5.57;;;12.30;99.90;;;;;;5109778;28;20043;-58
2023/05/28 06:00:38;;;;;;;16.58;6.25;;;12.40;99.90;;;;;;5104271;28;20020;-57
2023/05/28 06:03:04;;;;;;;14.60;4.95;;;12.50;99.90;;;;;;5112223;27;20388;-58
2023/05/28 06:05:29;;;;;;;15.95;5.63;;;12.50;99.90;;;;;;5109618;28;20024;-55
2023/05/28 06:07:56;;;;;;;16.90;5.68;;;12.60;99.90;;;;;;5111552;28;20516;-54
2023/05/28 06:10:22;;;;;;;16.73;5.13;;;12.70;99.90;;;;;;5111437;28;20035;-55
2023/05/28 06:12:48;;;;;;;18.65;5.57;;;12.80;99.90;;;;;;5110314;28;20027;-59
2023/05/28 06:15:14;;;;;;;12.95;5.18;;;12.90;99.90;;;;;;5105780;28;20560;-58
2023/05/28 06:17:39;;;;;;;13.95;6.10;;;12.90;99.90;;;;;;5111036;28;20100;-55
2023/05/28 06:20:06;;;;;;;8.82;5.10;;;13.00;99.90;;;;;;5110785;28;20474;-56
2023/05/28 06:22:32;;;;;;;11.57;4.85;;;13.10;99.90;;;;;;5110550;28;20099;-59
2023/05/28 06:24:58;;;;;;;16.60;5.55;;;13.10;99.90;;;;;;5108810;28;20479;-55
2023/05/28 06:27:23;;;;;;;14.60;5.35;;;13.20;99.90;;;;;;5109972;28;20036;-58
2023/05/28 06:29:49;;;;;;;15.30;5.60;;;13.30;99.90;;;;;;5105009;28;20554;-55
2023/05/28 06:32:14;;;;;;;12.65;5.22;;;13.40;99.90;;;;;;5110479;28;20427;-58
2023/05/28 06:34:40;;;;;;;13.55;4.90;;;13.50;99.90;;;;;;5110566;28;20023;-56
2023/05/28 06:37:06;;;;;;;15.55;5.45;;;13.60;99.90;;;;;;5110689;28;20019;-58
2023/05/28 06:39:32;;;;;;;14.80;5.13;;;13.60;99.90;;;;;;5109310;28;20027;-57
2023/05/28 06:41:57;;;;;;;13.57;4.97;;;13.70;99.90;;;;;;5111721;28;20024;-56
2023/05/28 06:44:23;;;;;;;15.55;4.30;;;13.80;99.90;;;;;;5110089;28;20046;-58
2023/05/28 06:46:48;;;;;;;13.45;5.45;;;13.90;99.90;;;;;;5103652;28;20024;-55
2023/05/28 06:49:14;;;;;;;17.90;4.97;;;14.00;99.90;;;;;;5110374;28;20497;-59
2023/05/28 06:51:40;;;;;;;10.40;4.65;;;14.10;99.90;;;;;;5108211;28;20047;-54
2023/05/28 06:54:05;;;;;;;12.38;4.88;;;14.20;99.90;;;;;;5112121;28;20058;-58
2023/05/28 06:56:31;;;;;;;17.85;4.97;;;14.30;99.90;;;;;;5109512;28;20081;-56
2023/05/28 06:58:56;;;;;;;13.65;5.28;;;14.40;99.90;;;;;;5113851;28;20041;-57
2023/05/28 07:01:22;;;;;;;16.85;5.53;;;14.50;99.90;;;;;;5113524;28;20187;-58
2023/05/28 07:03:47;;;;;;;13.07;4.82;;;14.60;99.90;;;;;;5115618;27;20023;-58
2023/05/28 07:06:13;;;;;;;17.75;4.90;;;14.60;99.90;;;;;;5114785;28;20567;-57
2023/05/28 07:08:44;;;;;;;9.20;4.78;;;14.70;99.90;;;;;;5113434;28;20112;-59
2023/05/28 07:11:10;;;;;;;11.77;5.10;;;14.80;99.90;;;;;;5114274;28;20087;-59
2023/05/28 07:13:36;;;;;;;12.88;5.85;;;15.00;99.90;;;;;;5108696;28;20486;-58
2023/05/28 07:16:02;;;;;;;14.10;4.75;;;15.20;99.90;;;;;;5107512;28;20451;-55
2023/05/28 07:18:27;;;;;;;13.32;4.95;;;15.30;99.90;;;;;;5112364;28;20076;-59
2023/05/28 07:20:53;;;;;;;17.25;4.80;;;15.30;99.90;;;;;;5110116;28;20042;-58
2023/05/28 07:23:19;;;;;;;13.55;5.15;;;15.40;99.90;;;;;;5112369;28;20072;-56
2023/05/28 07:25:44;;;;;;;13.85;5.10;;;15.50;99.90;;;;;;5109353;28;20443;-57
2023/05/28 07:28:10;;;;;;;16.88;7.30;;;15.50;99.90;;;;;;5113063;28;20023;-60
2023/05/28 07:30:35;;;;;;;13.05;5.25;;;15.60;99.90;;;;;;5110598;28;20028;-58
2023/05/28 07:33:01;;;;;;;15.05;4.82;;;15.70;99.90;;;;;;5113458;28;20024;-57
2023/05/28 07:35:26;;;;;;;17.10;4.70;;;15.80;99.90;;;;;;5113168;28;20071;-58
2023/05/28 07:37:53;;;;;;;11.50;5.10;;;15.90;99.90;;;;;;5113342;28;20074;-57
2023/05/28 07:40:19;;;;;;;11.80;4.53;;;16.00;99.90;;;;;;5108892;28;20026;-56
2023/05/28 07:42:44;;;;;;;11.20;5.50;;;16.10;99.90;;;;;;5107901;28;20019;-58
2023/05/28 07:45:10;;;;;;;12.18;4.90;;;16.20;99.90;;;;;;5111956;28;20082;-58
2023/05/28 07:47:36;;;;;;;11.43;4.55;;;16.30;99.90;;;;;;5111013;28;20023;-58
2023/05/28 07:50:04;;;;;;;17.27;4.72;;;16.50;99.90;;;;;;5111010;28;20024;-59
2023/05/28 07:52:29;;;;;;;12.40;5.47;;;16.70;99.90;;;;;;5112981;28;20067;-59
2023/05/28 07:54:58;;;;;;;17.00;5.68;;;17.00;99.90;;;;;;5112473;28;20031;-58
2023/05/28 07:57:24;;;;;;;13.15;5.43;;;17.10;99.90;;;;;;5106971;28;20497;-58
2023/05/28 07:59:50;;;;;;;19.67;6.00;;;17.10;99.90;;;;;;5111826;28;20016;-60
2023/05/28 08:02:16;;;;;;;12.15;5.50;;;17.30;99.90;;;;;;5110036;28;20072;-58
2023/05/28 08:04:42;;;;;;;15.50;5.15;;;17.30;99.90;;;;;;5114003;27;20036;-60
2023/05/28 08:07:09;;;;;;;17.27;6.00;;;17.30;99.90;;;;;;5111428;28;20104;-59
2023/05/28 08:09:35;;;;;;;21.05;5.20;;;17.50;99.90;;;;;;5112315;28;20534;-59
2023/05/28 08:12:04;;;;;;;13.13;5.82;;;17.70;99.90;;;;;;5112285;28;20036;-60
2023/05/28 08:14:30;;;;;;;10.75;4.95;;;17.70;99.90;;;;;;5107988;28;20032;-59
2023/05/28 08:16:55;;;;;;;16.08;4.90;;;17.80;99.90;;;;;;5112559;28;20073;-56
2023/05/28 08:19:21;;;;;;;12.30;4.93;;;17.90;99.90;;;;;;5110788;28;20505;-59
2023/05/28 08:21:46;;;;;;;10.07;4.95;;;18.00;99.90;;;;;;5108072;28;20023;-61
2023/05/28 08:24:12;;;;;;;12.57;4.82;;;18.10;99.90;;;;;;5113166;28;20059;-57
2023/05/28 08:26:37;;;;;;;9.68;4.32;;;18.30;99.90;;;;;;5112502;28;20122;-58
2023/05/28 08:29:04;;;;;;;13.82;5.07;;;18.40;99.90;;;;;;5110582;28;20027;-58
2023/05/28 08:31:33;;;;;;;10.85;4.80;;;18.40;99.90;;;;;;5110814;28;20088;-59
2023/05/28 08:33:59;;;;;;;16.90;4.93;;;18.50;99.90;;;;;;5107743;28;20032;-58
2023/05/28 08:36:24;;;;;;;16.60;5.18;;;18.60;99.90;;;;;;5112084;28;20026;-59
2023/05/28 08:38:50;;;;;;;12.15;4.25;;;18.80;99.90;;;;;;5113324;27;20424;-56
2023/05/28 08:41:16;;;;;;;11.60;4.47;;;19.00;99.90;;;;;;5112944;28;20037;-59
2023/05/28 08:43:42;;;;;;;13.73;4.78;;;19.00;99.90;;;;;;5111718;28;21245;-59
2023/05/28 08:46:08;;;;;;;10.98;4.43;;;19.20;99.90;;;;;;5110270;28;20035;-60
2023/05/28 08:48:35;;;;;;;10.73;4.47;;;19.20;99.90;;;;;;5111529;28;20378;-60
2023/05/28 08:51:01;;;;;;;14.55;4.20;;;19.40;99.90;;;;;;5112982;28;20020;-56
2023/05/28 08:53:31;;;;;;;10.93;4.30;;;19.40;99.90;;;;;;5111083;28;20024;-55
2023/05/28 08:55:57;;;;;;;13.68;3.80;;;19.50;99.90;;;;;;5112415;28;20428;-58
2023/05/28 08:58:23;;;;;;;13.35;4.40;;;19.70;99.90;;;;;;5111075;28;20027;-56
2023/05/28 09:00:49;;;;;;;21.17;3.83;;;19.80;99.90;;;;;;5110851;28;20061;-57
2023/05/28 09:03:14;;;;;;;6.70;3.50;;;19.80;99.90;;;;;;5108117;27;20425;-58
2023/05/28 09:05:40;;;;;;;10.10;4.15;;;19.90;99.90;;;;;;5108017;28;20050;-59
2023/05/28 09:08:12;;;;;;;11.27;3.20;;;20.10;99.90;;;;;;5107671;28;20386;-58
2023/05/28 09:10:39;;;;;;;12.23;3.17;;;20.20;99.90;;;;;;5108231;28;20039;-60
2023/05/28 09:13:06;;;;;;;8.80;4.05;;;20.40;99.90;;;;;;5110644;28;20363;-56
2023/05/28 09:15:34;;;;;;;10.55;3.33;;;20.40;98.20;;;;;;5106562;28;20043;-58
2023/05/28 09:18:00;;;;;;;9.63;3.70;;;20.40;99.10;;;;;;5106993;28;20020;-58
2023/05/28 09:20:27;;;;;;;8.35;3.33;;;20.50;99.00;;;;;;5107856;28;20460;-59
2023/05/28 09:22:59;;;;;;;11.68;3.70;;;20.60;99.60;;;;;;5112226;27;20027;-59
2023/05/28 09:25:26;;;;;;;13.75;4.00;;;20.80;97.20;;;;;;5110576;28;20015;-56
2023/05/28 09:27:53;;;;;;;8.43;3.58;;;20.90;96.40;;;;;;5108260;28;20439;-59
2023/05/28 09:30:19;;;;;;;12.63;4.38;;;21.00;96.60;;;;;;5109705;28;20023;-58
2023/05/28 09:32:44;;;;;;;11.45;4.28;;;21.10;95.70;;;;;;5109686;28;20039;-57
2023/05/28 09:35:10;;;;;;;7.05;3.28;;;21.10;95.20;;;;;;5111115;28;20023;-58
2023/05/28 09:37:36;;;;;;;7.95;3.35;;;21.20;96.00;;;;;;5111047;28;20032;-56
2023/05/28 09:40:03;;;;;;;10.73;3.80;;;21.40;94.10;;;;;;5111788;28;20016;-59
2023/05/28 09:42:51;;;;;;;7.63;3.55;;;21.50;94.10;;;;;;5102323;28;20342;-58
2023/05/28 09:45:27;;;;;;;9.00;3.67;;;21.80;92.70;;;;;;5108064;28;20030;-56
2023/05/28 09:47:53;;;;;;;18.20;3.53;;;21.90;91.90;;;;;;5110046;28;20111;-57
2023/05/28 09:50:18;;;;;;;7.60;3.42;;;22.10;94.60;;;;;;5110592;28;20095;-58
2023/05/28 09:52:45;;;;;;;5.95;3.35;;;22.30;96.80;;;;;;5111750;28;20439;-58
2023/05/28 09:55:17;;;;;;;7.35;3.40;;;22.40;92.70;;;;;;5111819;28;20019;-57
2023/05/28 09:57:58;;;;;;;9.23;3.55;;;22.60;98.30;;;;;;5109905;28;20019;-57
2023/05/28 10:00:34;;;;;;;7.32;3.40;;;22.80;91.30;;;;;;5108311;28;20031;-57
2023/05/28 10:03:13;;;;;;;9.85;4.03;;;22.90;88.70;;;;;;5105636;28;20020;-57
2023/05/28 10:05:44;;;;;;;11.82;4.15;;;22.90;86.40;;;;;;5111195;27;20032;-56
2023/05/28 10:08:12;;;;;;;24.55;3.97;;;22.90;86.80;;;;;;5111393;28;20519;-57
2023/05/28 10:10:41;;;;;;;7.47;3.85;;;23.00;84.30;;;;;;5111034;28;20065;-56
2023/05/28 10:13:09;;;;;;;9.93;3.50;;;23.20;84.80;;;;;;5108570;28;20515;-58
2023/05/28 10:15:36;;;;;;;7.15;3.13;;;23.20;87.70;;;;;;5101108;28;20023;-57
2023/05/28 10:18:02;;;;;;;17.27;4.35;;;23.40;91.20;;;;;;5107624;28;20046;-56
2023/05/28 10:20:29;;;;;;;8.32;3.47;;;23.60;91.60;;;;;;5107121;28;20055;-59
2023/05/28 10:22:55;;;;;;;7.78;3.70;;;24.00;87.20;;;;;;5110321;28;20389;-56
2023/05/28 10:25:21;;;;;;;8.52;3.63;;;24.20;85.00;;;;;;5106907;28;20031;-54
2023/05/28 10:27:50;;;;;;;7.00;3.47;;;24.20;85.70;;;;;;5109106;28;20167;-60
2023/05/28 10:30:34;;;;;;;10.20;3.80;;;24.50;78.60;;;;;;5107150;28;20032;-57
2023/05/28 10:33:11;;;;;;;7.47;3.75;;;24.60;78.50;;;;;;5110204;28;20506;-58
2023/05/28 10:35:54;;;;;;;7.97;4.10;;;24.70;78.00;;;;;;5107682;28;20031;-59
2023/05/28 10:38:19;;;;;;;7.47;3.55;;;24.70;83.60;;;;;;5105162;28;20024;-59
2023/05/28 10:40:45;;;;;;;11.88;4.55;;;25.00;77.50;;;;;;5105618;28;20035;-59
2023/05/28 10:43:38;;;;;;;6.68;3.72;;;25.10;78.20;;;;;;5106880;28;20473;-59
2023/05/28 10:46:09;;;;;;;7.53;3.40;;;25.00;73.40;;;;;;5105521;28;20028;-59
2023/05/28 10:49:05;;;;;;;6.80;3.65;;;25.20;71.20;;;;;;5101631;28;20022;-58
2023/05/28 10:51:57;;;;;;;10.25;3.20;;;25.00;71.60;;;;;;5107103;28;20080;-60
2023/05/28 10:54:26;;;;;;;9.13;3.60;;;24.90;70.50;;;;;;5104710;28;20036;-60
2023/05/28 10:57:17;;;;;;;8.23;3.60;;;24.80;71.70;;;;;;5105924;28;20031;-60
2023/05/28 11:00:13;;;;;;;8.88;3.83;;;24.80;69.10;;;;;;5103493;28;20130;-56
2023/05/28 11:02:42;;;;;;;10.95;4.20;;;25.00;68.70;;;;;;5086869;28;20520;-61
2023/05/28 11:05:07;;;;;;;8.40;3.35;;;25.00;67.30;;;;;;5109407;28;20019;-58
2023/05/28 11:07:37;;;;;;;8.88;4.07;;;25.30;68.30;;;;;;5109780;28;20487;-60
2023/05/28 11:10:05;;;;;;;8.80;3.63;;;25.40;67.20;;;;;;5110292;28;20139;-55
2023/05/28 11:12:36;;;;;;;8.57;3.33;;;25.60;69.20;;;;;;5104989;28;20046;-57
2023/05/28 11:15:03;;;;;;;12.30;3.70;;;26.00;69.50;;;;;;5109519;28;20108;-58
2023/05/28 11:17:28;;;;;;;10.43;4.03;;;26.20;68.20;;;;;;5106542;28;20035;-60
2023/05/28 11:19:54;;;;;;;6.93;3.75;;;25.80;77.10;;;;;;5104495;28;20031;-58
2023/05/28 11:22:20;;;;;;;6.10;3.78;;;26.20;65.00;;;;;;5102313;28;20702;-58
2023/05/28 11:25:07;;;;;;;8.60;3.75;;;26.00;71.70;;;;;;5097042;28;20115;-60
2023/05/28 11:27:35;;;;;;;8.05;3.90;;;26.40;64.30;;;;;;5095448;28;20024;-58
2023/05/28 11:30:08;;;;;;;9.25;4.13;;;26.10;62.60;;;;;;5115892;27;20023;-60
2023/05/28 11:32:34;;;;;;;8.80;4.20;;;26.10;59.80;;;;;;5101151;28;20032;-60
2023/05/28 11:35:00;;;;;;;9.43;4.45;;;26.30;61.60;;;;;;5100592;28;20047;-60
2023/05/28 11:37:28;;;;;;;9.63;4.03;;;26.50;58.40;;;;;;5105246;28;20791;-60
2023/05/28 11:39:55;;;;;;;7.85;4.15;;;26.30;73.10;;;;;;5103107;28;20027;-59
2023/05/28 11:42:22;;;;;;;6.60;3.90;;;26.40;74.80;;;;;;5101876;28;20485;-57
2023/05/28 11:44:50;;;;;;;9.45;3.85;;;26.80;68.50;;;;;;5108652;28;20032;-60
2023/05/28 11:47:17;;;;;;;9.77;3.45;;;26.90;60.40;;;;;;5108170;27;20100;-57
2023/05/28 11:49:42;;;;;;;7.47;3.63;;;26.50;59.30;;;;;;5113597;28;20035;-60
2023/05/28 11:52:12;;;;;;;8.10;3.75;;;26.50;60.10;;;;;;5108218;27;21534;-59
2023/05/28 11:54:40;;;;;;;6.20;3.60;;;26.70;58.60;;;;;;5100720;28;20409;-56
2023/05/28 11:57:06;;;;;;;10.35;4.00;;;26.70;59.00;;;;;;5104599;28;20031;-60
2023/05/28 11:59:32;;;;;;;7.43;3.60;;;26.70;58.90;;;;;;5105568;28;20020;-60
2023/05/28 12:02:14;;;;;;;8.88;3.65;;;26.70;59.50;;;;;;5103141;28;20116;-57
2023/05/28 12:04:40;;;;;;;6.35;4.07;;;26.90;57.80;;;;;;5104062;28;20024;-58
2023/05/28 12:07:06;;;;;;;8.50;3.85;;;26.90;57.90;;;;;;5107205;28;20178;-59
2023/05/28 12:09:32;;;;;;;7.95;3.70;;;26.80;56.40;;;;;;5108183;28;20035;-57
2023/05/28 12:12:02;;;;;;;7.10;3.67;;;26.40;56.80;;;;;;5110095;28;20026;-58
2023/05/28 12:14:31;;;;;;;9.23;3.50;;;26.40;57.00;;;;;;5102875;28;20023;-58
2023/05/28 12:17:09;;;;;;;9.45;3.70;;;26.60;56.70;;;;;;5104992;28;20016;-60
2023/05/28 12:19:35;;;;;;;10.57;4.60;;;27.00;56.40;;;;;;5100800;28;20515;-60
2023/05/28 12:22:02;;;;;;;8.90;3.90;;;27.10;55.50;;;;;;5106195;28;20027;-58
2023/05/28 12:24:28;;;;;;;9.55;4.50;;;26.80;55.00;;;;;;5108471;27;20035;-59
2023/05/28 12:26:53;;;;;;;6.82;3.80;;;26.90;55.50;;;;;;5107604;28;20028;-59
2023/05/28 12:29:19;;;;;;;7.10;3.72;;;26.60;55.30;;;;;;5106703;28;20050;-58
2023/05/28 12:31:44;;;;;;;10.23;3.83;;;26.60;55.90;;;;;;5105353;28;20379;-59
2023/05/28 12:34:11;;;;;;;8.15;4.45;;;26.90;56.70;;;;;;5110162;28;20023;-56
2023/05/28 12:36:37;;;;;;;6.68;4.15;;;27.30;61.60;;;;;;5109464;28;20027;-59
2023/05/28 12:39:04;;;;;;;8.93;4.18;;;27.50;56.00;;;;;;5109336;28;20028;-59